createdAt,value
2018-03-02T00:00:59.599Z,0.00
2018-03-02T00:01:59.450Z,0.00
2018-03-02T00:02:59.413Z,0.00
2018-03-02T00:03:59.421Z,0.00
2018-03-02T00:04:59.349Z,0.00
2018-03-02T00:05:59.317Z,0.00
2018-03-02T00:06:59.391Z,0.00
2018-03-02T00:07:59.244Z,0.00
2018-03-02T00:08:59.210Z,0.00
2018-03-02T00:09:59.265Z,0.00
2018-03-02T00:10:59.148Z,0.00
2018-03-02T00:11:59.123Z,0.00
2018-03-02T00:12:59.088Z,0.00
2018-03-02T00:13:59.051Z,0.00
2018-03-02T00:14:59.017Z,0.00
2018-03-02T00:15:58.987Z,0.00
2018-03-02T00:16:58.970Z,0.00
2018-03-02T00:17:58.922Z,0.00
2018-03-02T00:18:58.889Z,0.00
2018-03-02T00:19:58.856Z,0.00
2018-03-02T00:20:58.827Z,0.00
2018-03-02T00:21:58.792Z,0.00
2018-03-02T00:22:58.760Z,0.00
2018-03-02T00:23:58.731Z,0.00
2018-03-02T00:24:58.697Z,0.00
2018-03-02T00:25:58.661Z,0.00
2018-03-02T00:26:58.629Z,0.00
2018-03-02T00:27:58.601Z,0.00
2018-03-02T00:28:58.567Z,0.00
2018-03-02T00:29:58.536Z,0.00
2018-03-02T00:30:58.507Z,0.00
2018-03-02T00:31:58.468Z,0.00
2018-03-02T00:32:58.435Z,0.00
2018-03-02T00:33:58.406Z,0.00
2018-03-02T00:34:58.372Z,0.00
2018-03-02T00:35:58.340Z,0.00
2018-03-02T00:36:58.309Z,0.00
2018-03-02T00:37:58.386Z,0.00
2018-03-02T00:38:58.248Z,0.00
2018-03-02T00:39:58.211Z,0.00
2018-03-02T00:40:58.210Z,0.00
2018-03-02T00:41:58.155Z,0.00
2018-03-02T00:42:58.120Z,0.00
2018-03-02T00:43:58.096Z,0.00
2018-03-02T00:44:58.051Z,0.00
2018-03-02T00:45:58.017Z,0.00
2018-03-02T00:46:57.987Z,0.00
2018-03-02T00:47:57.953Z,0.00
2018-03-02T00:48:57.932Z,0.00
2018-03-02T00:49:57.888Z,0.00
2018-03-02T00:50:57.856Z,0.00
2018-03-02T00:51:57.838Z,0.00
2018-03-02T00:52:57.791Z,0.00
2018-03-02T00:53:57.774Z,0.00
2018-03-02T00:54:57.782Z,0.00
2018-03-02T00:55:57.694Z,0.00
2018-03-02T00:56:57.663Z,0.00
2018-03-02T00:57:57.631Z,0.00
2018-03-02T00:58:57.613Z,0.00
2018-03-02T00:59:57.563Z,0.00
2018-03-02T01:00:57.531Z,0.00
2018-03-02T01:01:57.556Z,0.00
2018-03-02T01:02:57.468Z,0.00
2018-03-02T01:03:57.438Z,0.00
2018-03-02T01:04:57.400Z,0.00
2018-03-02T01:05:57.370Z,0.00
2018-03-02T01:06:57.346Z,0.00
2018-03-02T01:07:57.314Z,0.00
2018-03-02T01:08:57.284Z,0.00
2018-03-02T01:09:57.250Z,0.00
2018-03-02T01:10:57.211Z,0.00
2018-03-02T01:11:57.177Z,0.00
2018-03-02T01:12:57.142Z,0.00
2018-03-02T01:13:57.123Z,0.00
2018-03-02T01:14:57.081Z,0.00
2018-03-02T01:15:57.046Z,0.00
2018-03-02T01:16:57.018Z,0.00
2018-03-02T01:17:56.990Z,0.00
2018-03-02T01:18:56.950Z,0.00
2018-03-02T01:19:56.916Z,0.00
2018-03-02T01:20:56.885Z,0.00
2018-03-02T01:21:56.853Z,0.00
2018-03-02T01:22:56.985Z,0.00
2018-03-02T01:23:56.790Z,0.00
2018-03-02T01:24:56.758Z,0.00
2018-03-02T01:25:56.841Z,0.00
2018-03-02T01:26:56.690Z,0.00
2018-03-02T01:27:56.658Z,0.00
2018-03-02T01:28:56.629Z,0.00
2018-03-02T01:29:56.593Z,0.00
2018-03-02T01:30:56.563Z,0.00
2018-03-02T01:31:56.537Z,0.00
2018-03-02T01:32:56.498Z,0.00
2018-03-02T01:33:56.466Z,0.00
2018-03-02T01:34:56.431Z,0.00
2018-03-02T01:35:56.399Z,0.00
2018-03-02T01:36:56.367Z,0.00
2018-03-02T01:37:56.343Z,0.00
2018-03-02T01:38:56.319Z,0.00
2018-03-02T01:39:56.271Z,0.00
2018-03-02T01:40:56.238Z,0.00
2018-03-02T01:41:56.208Z,0.00
2018-03-02T01:42:56.176Z,0.00
2018-03-02T01:43:56.148Z,0.00
2018-03-02T01:44:56.119Z,0.00
2018-03-02T01:45:56.077Z,0.00
2018-03-02T01:46:56.046Z,0.00
2018-03-02T01:47:56.016Z,0.00
2018-03-02T01:48:55.983Z,0.00
2018-03-02T01:49:55.949Z,0.00
2018-03-02T01:50:55.915Z,0.00
2018-03-02T01:51:55.886Z,0.00
2018-03-02T01:52:55.859Z,0.00
2018-03-02T01:53:55.819Z,0.00
2018-03-02T01:54:55.791Z,0.00
2018-03-02T01:55:55.755Z,0.00
2018-03-02T01:56:55.724Z,0.00
2018-03-02T01:57:55.694Z,0.00
2018-03-02T01:58:55.659Z,0.00
2018-03-02T01:59:55.628Z,0.00
2018-03-02T02:00:55.594Z,0.00
2018-03-02T02:01:55.564Z,0.00
2018-03-02T02:02:55.538Z,0.00
2018-03-02T02:03:55.503Z,0.00
2018-03-02T02:04:55.472Z,0.00
2018-03-02T02:05:55.433Z,0.00
2018-03-02T02:06:55.403Z,0.00
2018-03-02T02:07:55.365Z,0.00
2018-03-02T02:08:55.350Z,0.00
2018-03-02T02:09:55.302Z,0.00
2018-03-02T02:10:55.273Z,0.00
2018-03-02T02:11:55.237Z,0.00
2018-03-02T02:12:55.204Z,0.00
2018-03-02T02:13:55.180Z,0.00
2018-03-02T02:14:55.142Z,0.00
2018-03-02T02:15:55.107Z,0.00
2018-03-02T02:16:55.073Z,0.00
2018-03-02T02:17:55.042Z,0.00
2018-03-02T02:18:55.029Z,0.00
2018-03-02T02:19:54.981Z,0.00
2018-03-02T02:20:54.948Z,0.00
2018-03-02T02:21:54.923Z,0.00
2018-03-02T02:22:54.884Z,0.00
2018-03-02T02:23:54.990Z,0.00
2018-03-02T02:24:54.826Z,0.00
2018-03-02T02:25:54.784Z,0.00
2018-03-02T02:26:54.845Z,0.00
2018-03-02T02:27:54.721Z,0.00
2018-03-02T02:28:54.689Z,0.00
2018-03-02T02:29:54.752Z,0.00
2018-03-02T02:30:54.628Z,0.00
2018-03-02T02:31:54.595Z,0.00
2018-03-02T02:32:54.555Z,0.00
2018-03-02T02:33:54.523Z,0.00
2018-03-02T02:34:54.493Z,0.00
2018-03-02T02:35:54.460Z,0.00
2018-03-02T02:36:54.429Z,0.00
2018-03-02T02:37:54.395Z,0.00
2018-03-02T02:38:54.359Z,0.00
2018-03-02T02:39:54.329Z,0.00
2018-03-02T02:40:54.295Z,0.00
2018-03-02T02:41:54.261Z,0.00
2018-03-02T02:42:54.228Z,0.00
2018-03-02T02:43:54.198Z,0.00
2018-03-02T02:44:54.162Z,0.00
2018-03-02T02:45:54.130Z,0.00
2018-03-02T02:46:54.098Z,0.00
2018-03-02T02:47:54.062Z,0.00
2018-03-02T02:48:54.032Z,0.00
2018-03-02T02:49:54.007Z,0.00
2018-03-02T02:50:53.967Z,0.00
2018-03-02T02:51:53.936Z,0.00
2018-03-02T02:52:53.902Z,0.00
2018-03-02T02:53:53.869Z,0.00
2018-03-02T02:54:53.838Z,0.00
2018-03-02T02:55:53.806Z,0.00
2018-03-02T02:56:53.769Z,0.00
2018-03-02T02:57:53.738Z,0.00
2018-03-02T02:58:53.705Z,0.00
2018-03-02T02:59:53.681Z,0.00
2018-03-02T03:00:53.638Z,0.00
2018-03-02T03:01:53.622Z,0.00
2018-03-02T03:02:53.577Z,0.00
2018-03-02T03:03:53.541Z,0.00
2018-03-02T03:04:53.517Z,0.00
2018-03-02T03:05:53.475Z,0.00
2018-03-02T03:06:53.446Z,0.00
2018-03-02T03:07:53.410Z,0.00
2018-03-02T03:08:53.374Z,0.00
2018-03-02T03:09:53.345Z,0.00
2018-03-02T03:10:53.309Z,0.00
2018-03-02T03:11:53.423Z,0.00
2018-03-02T03:12:53.243Z,0.00
2018-03-02T03:13:53.215Z,0.00
2018-03-02T03:14:53.227Z,0.00
2018-03-02T03:15:53.146Z,0.00
2018-03-02T03:16:53.116Z,0.00
2018-03-02T03:17:53.185Z,0.00
2018-03-02T03:18:53.049Z,0.00
2018-03-02T03:19:53.015Z,0.00
2018-03-02T03:20:52.988Z,0.00
2018-03-02T03:21:52.952Z,0.00
2018-03-02T03:22:52.917Z,0.00
2018-03-02T03:23:52.891Z,0.00
2018-03-02T03:24:52.853Z,0.00
2018-03-02T03:25:52.817Z,0.00
2018-03-02T03:26:52.784Z,0.00
2018-03-02T03:27:52.752Z,0.00
2018-03-02T03:28:52.722Z,0.00
2018-03-02T03:29:52.687Z,0.00
2018-03-02T03:30:52.662Z,0.00
2018-03-02T03:31:52.621Z,0.00
2018-03-02T03:32:52.592Z,0.00
2018-03-02T03:33:52.554Z,0.00
2018-03-02T03:34:52.524Z,0.00
2018-03-02T03:35:52.491Z,0.00
2018-03-02T03:36:52.456Z,0.00
2018-03-02T03:37:52.425Z,0.00
2018-03-02T03:38:52.393Z,0.00
2018-03-02T03:39:52.365Z,0.00
2018-03-02T03:40:52.330Z,0.00
2018-03-02T03:41:52.295Z,0.00
2018-03-02T03:42:52.263Z,0.00
2018-03-02T03:43:52.231Z,0.00
2018-03-02T03:44:52.195Z,0.00
2018-03-02T03:45:52.161Z,0.00
2018-03-02T03:46:52.128Z,0.00
2018-03-02T03:47:52.095Z,0.00
2018-03-02T03:48:52.064Z,0.00
2018-03-02T03:49:52.036Z,0.00
2018-03-02T03:50:52.000Z,0.00
2018-03-02T03:51:51.963Z,0.00
2018-03-02T03:52:51.931Z,0.00
2018-03-02T03:53:51.898Z,0.00
2018-03-02T03:54:51.865Z,0.00
2018-03-02T03:55:51.830Z,0.00
2018-03-02T03:56:51.802Z,0.00
2018-03-02T03:57:51.769Z,0.00
2018-03-02T03:58:51.738Z,0.00
2018-03-02T03:59:51.717Z,0.00
2018-03-02T04:00:51.666Z,0.00
2018-03-02T04:01:51.634Z,0.00
2018-03-02T04:02:51.677Z,0.00
2018-03-02T04:03:51.567Z,0.00
2018-03-02T04:04:51.537Z,0.00
2018-03-02T04:05:51.666Z,0.00
2018-03-02T04:06:51.474Z,0.00
2018-03-02T04:07:51.436Z,0.00
2018-03-02T04:08:51.482Z,0.00
2018-03-02T04:09:51.372Z,0.00
2018-03-02T04:10:51.354Z,0.00
2018-03-02T04:11:51.357Z,0.00
2018-03-02T04:12:51.276Z,0.00
2018-03-02T04:13:51.239Z,0.00
2018-03-02T04:14:51.209Z,0.00
2018-03-02T04:15:51.179Z,0.00
2018-03-02T04:16:51.139Z,0.00
2018-03-02T04:17:51.114Z,0.00
2018-03-02T04:18:51.075Z,0.00
2018-03-02T04:19:51.045Z,0.00
2018-03-02T04:20:51.008Z,0.00
2018-03-02T04:21:50.975Z,0.00
2018-03-02T04:22:50.945Z,0.00
2018-03-02T04:23:50.910Z,0.00
2018-03-02T04:24:50.875Z,0.00
2018-03-02T04:25:50.849Z,0.00
2018-03-02T04:26:50.810Z,0.00
2018-03-02T04:27:50.776Z,0.00
2018-03-02T04:28:50.744Z,0.00
2018-03-02T04:29:50.713Z,0.00
2018-03-02T04:30:50.677Z,0.00
2018-03-02T04:31:50.644Z,0.00
2018-03-02T04:32:50.614Z,0.00
2018-03-02T04:33:50.578Z,0.00
2018-03-02T04:34:50.546Z,0.00
2018-03-02T04:35:50.530Z,0.00
2018-03-02T04:36:50.478Z,0.00
2018-03-02T04:37:50.447Z,0.00
2018-03-02T04:38:50.412Z,0.00
2018-03-02T04:39:50.381Z,0.00
2018-03-02T04:40:50.345Z,0.00
2018-03-02T04:41:50.312Z,0.00
2018-03-02T04:42:50.286Z,0.00
2018-03-02T04:43:50.246Z,0.00
2018-03-02T04:44:50.214Z,0.00
2018-03-02T04:45:50.181Z,0.00
2018-03-02T04:46:50.146Z,0.00
2018-03-02T04:47:50.115Z,0.00
2018-03-02T04:48:50.082Z,0.00
2018-03-02T04:49:50.052Z,0.00
2018-03-02T04:50:50.017Z,0.00
2018-03-02T04:51:49.980Z,0.00
2018-03-02T04:52:49.951Z,0.00
2018-03-02T04:53:49.997Z,0.00
2018-03-02T04:54:49.880Z,0.00
2018-03-02T04:55:49.850Z,0.00
2018-03-02T04:56:49.816Z,0.00
2018-03-02T04:57:49.791Z,0.00
2018-03-02T04:58:49.751Z,0.00
2018-03-02T04:59:49.714Z,0.00
2018-03-02T05:00:49.690Z,0.00
2018-03-02T05:01:49.650Z,0.00
2018-03-02T05:02:49.618Z,0.00
2018-03-02T05:03:49.743Z,0.00
2018-03-02T05:04:49.550Z,0.00
2018-03-02T05:05:49.519Z,0.00
2018-03-02T05:06:49.599Z,0.00
2018-03-02T05:07:49.448Z,0.00
2018-03-02T05:08:49.419Z,0.00
2018-03-02T05:09:49.396Z,0.00
2018-03-02T05:10:49.347Z,0.00
2018-03-02T05:11:49.319Z,0.00
2018-03-02T05:12:49.282Z,0.00
2018-03-02T05:13:49.248Z,0.00
2018-03-02T05:14:49.241Z,0.00
2018-03-02T05:15:49.192Z,0.00
2018-03-02T05:16:49.150Z,0.00
2018-03-02T05:17:49.117Z,0.00
2018-03-02T05:18:49.082Z,0.00
2018-03-02T05:19:49.050Z,0.00
2018-03-02T05:20:49.016Z,0.00
2018-03-02T05:21:48.983Z,0.00
2018-03-02T05:22:48.950Z,0.00
2018-03-02T05:23:48.920Z,0.00
2018-03-02T05:24:48.886Z,0.00
2018-03-02T05:25:48.849Z,0.00
2018-03-02T05:26:48.832Z,0.00
2018-03-02T05:27:48.782Z,0.00
2018-03-02T05:28:48.751Z,0.00
2018-03-02T05:29:48.726Z,0.00
2018-03-02T05:30:48.684Z,0.00
2018-03-02T05:31:48.649Z,0.00
2018-03-02T05:32:48.624Z,0.00
2018-03-02T05:33:48.585Z,0.00
2018-03-02T05:34:48.623Z,0.00
2018-03-02T05:35:48.516Z,0.00
2018-03-02T05:36:48.485Z,0.00
2018-03-02T05:37:48.458Z,0.00
2018-03-02T05:38:48.418Z,0.00
2018-03-02T05:39:48.384Z,0.00
2018-03-02T05:40:48.349Z,0.00
2018-03-02T05:41:48.332Z,0.00
2018-03-02T05:42:48.283Z,0.00
2018-03-02T05:43:48.256Z,0.00
2018-03-02T05:44:48.345Z,0.00
2018-03-02T05:45:48.192Z,0.00
2018-03-02T05:46:48.150Z,0.00
2018-03-02T05:47:48.118Z,0.00
2018-03-02T05:48:48.084Z,0.00
2018-03-02T05:49:48.055Z,0.00
2018-03-02T05:50:48.015Z,0.00
2018-03-02T05:51:47.991Z,0.00
2018-03-02T05:52:48.004Z,0.00
2018-03-02T05:53:47.918Z,0.00
2018-03-02T05:54:47.892Z,0.00
2018-03-02T05:55:47.848Z,0.00
2018-03-02T05:56:47.814Z,0.00
2018-03-02T05:57:47.783Z,0.00
2018-03-02T05:58:47.752Z,0.00
2018-03-02T05:59:47.717Z,0.00
2018-03-02T06:00:47.682Z,0.00
2018-03-02T06:01:47.656Z,0.00
2018-03-02T06:02:47.623Z,5.63
2018-03-02T06:03:47.581Z,5.63
2018-03-02T06:04:47.546Z,5.63
2018-03-02T06:05:47.514Z,5.63
2018-03-02T06:06:47.481Z,5.63
2018-03-02T06:07:47.446Z,5.63
2018-03-02T06:08:47.414Z,5.63
2018-03-02T06:09:47.396Z,11.25
2018-03-02T06:10:47.345Z,11.25
2018-03-02T06:11:47.311Z,11.25
2018-03-02T06:12:47.285Z,11.25
2018-03-02T06:13:47.245Z,11.25
2018-03-02T06:14:47.211Z,16.88
2018-03-02T06:15:47.180Z,16.88
2018-03-02T06:16:47.145Z,16.88
2018-03-02T06:17:47.109Z,16.88
2018-03-02T06:18:47.096Z,22.50
2018-03-02T06:19:47.044Z,22.50
2018-03-02T06:20:47.008Z,22.50
2018-03-02T06:21:46.974Z,22.50
2018-03-02T06:22:46.945Z,28.13
2018-03-02T06:23:46.908Z,28.13
2018-03-02T06:24:46.873Z,28.13
2018-03-02T06:25:46.841Z,33.75
2018-03-02T06:26:46.811Z,33.75
2018-03-02T06:27:46.772Z,39.38
2018-03-02T06:28:46.739Z,39.38
2018-03-02T06:29:46.708Z,45.00
2018-03-02T06:30:46.678Z,45.00
2018-03-02T06:31:46.637Z,50.63
2018-03-02T06:32:46.608Z,56.25
2018-03-02T06:33:46.574Z,56.25
2018-03-02T06:34:46.538Z,61.88
2018-03-02T06:35:46.507Z,61.88
2018-03-02T06:36:46.481Z,67.50
2018-03-02T06:37:46.437Z,73.13
2018-03-02T06:38:46.407Z,78.75
2018-03-02T06:39:46.372Z,78.75
2018-03-02T06:40:46.346Z,78.75
2018-03-02T06:41:46.311Z,84.38
2018-03-02T06:42:46.270Z,84.38
2018-03-02T06:43:46.240Z,90.00
2018-03-02T06:44:46.202Z,90.00
2018-03-02T06:45:46.169Z,90.00
2018-03-02T06:46:46.136Z,95.63
2018-03-02T06:47:46.100Z,101.25
2018-03-02T06:48:46.080Z,101.25
2018-03-02T06:49:46.034Z,106.88
2018-03-02T06:50:46.001Z,106.88
2018-03-02T06:51:46.016Z,112.50
2018-03-02T06:52:45.934Z,112.50
2018-03-02T06:53:45.899Z,118.13
2018-03-02T06:54:45.921Z,118.13
2018-03-02T06:55:45.836Z,123.75
2018-03-02T06:56:45.799Z,129.38
2018-03-02T06:57:45.769Z,129.38
2018-03-02T06:58:45.743Z,135.00
2018-03-02T06:59:45.701Z,140.63
2018-03-02T07:00:45.671Z,140.63
2018-03-02T07:01:45.633Z,140.63
2018-03-02T07:02:45.602Z,146.25
2018-03-02T07:03:45.575Z,146.25
2018-03-02T07:04:45.536Z,146.25
2018-03-02T07:05:45.498Z,151.88
2018-03-02T07:06:45.466Z,151.88
2018-03-02T07:07:45.434Z,157.50
2018-03-02T07:08:45.396Z,157.50
2018-03-02T07:09:45.373Z,163.13
2018-03-02T07:10:45.350Z,168.75
2018-03-02T07:11:45.299Z,174.38
2018-03-02T07:12:45.265Z,180.00
2018-03-02T07:13:45.243Z,185.63
2018-03-02T07:14:45.203Z,185.63
2018-03-02T07:15:45.166Z,191.25
2018-03-02T07:16:45.134Z,185.63
2018-03-02T07:17:45.102Z,185.63
2018-03-02T07:18:45.067Z,191.25
2018-03-02T07:19:45.032Z,202.50
2018-03-02T07:20:45.003Z,208.13
2018-03-02T07:21:44.978Z,219.38
2018-03-02T07:22:44.942Z,213.75
2018-03-02T07:23:44.903Z,208.13
2018-03-02T07:24:44.864Z,202.50
2018-03-02T07:25:44.833Z,213.75
2018-03-02T07:26:44.802Z,230.63
2018-03-02T07:27:44.764Z,241.88
2018-03-02T07:28:44.734Z,247.50
2018-03-02T07:29:44.701Z,247.50
2018-03-02T07:30:44.675Z,253.13
2018-03-02T07:31:44.636Z,258.75
2018-03-02T07:32:44.599Z,258.75
2018-03-02T07:33:44.570Z,258.75
2018-03-02T07:34:44.533Z,264.38
2018-03-02T07:35:44.499Z,264.38
2018-03-02T07:36:44.477Z,264.38
2018-03-02T07:37:44.435Z,270.00
2018-03-02T07:38:44.401Z,264.38
2018-03-02T07:39:44.382Z,270.00
2018-03-02T07:40:44.338Z,270.00
2018-03-02T07:41:44.308Z,264.38
2018-03-02T07:42:44.296Z,264.38
2018-03-02T07:43:44.239Z,264.38
2018-03-02T07:44:44.205Z,258.75
2018-03-02T07:45:44.261Z,253.13
2018-03-02T07:46:44.148Z,253.13
2018-03-02T07:47:44.108Z,264.38
2018-03-02T07:48:44.115Z,264.38
2018-03-02T07:49:44.040Z,264.38
2018-03-02T07:50:44.006Z,258.75
2018-03-02T07:51:43.977Z,241.88
2018-03-02T07:52:43.942Z,258.75
2018-03-02T07:53:43.922Z,270.00
2018-03-02T07:54:43.878Z,286.88
2018-03-02T07:55:43.843Z,298.13
2018-03-02T07:56:43.817Z,303.75
2018-03-02T07:57:43.778Z,309.38
2018-03-02T07:58:43.746Z,315.00
2018-03-02T07:59:43.715Z,315.00
2018-03-02T08:00:43.679Z,315.00
2018-03-02T08:01:43.656Z,320.63
2018-03-02T08:02:43.646Z,315.00
2018-03-02T08:03:43.586Z,320.63
2018-03-02T08:04:43.546Z,326.25
2018-03-02T08:05:43.518Z,331.88
2018-03-02T08:06:43.490Z,337.50
2018-03-02T08:07:43.452Z,343.13
2018-03-02T08:08:43.433Z,343.13
2018-03-02T08:09:43.437Z,343.13
2018-03-02T08:10:43.359Z,348.75
2018-03-02T08:11:43.318Z,348.75
2018-03-02T08:12:43.286Z,348.75
2018-03-02T08:13:43.262Z,354.38
2018-03-02T08:14:43.224Z,354.38
2018-03-02T08:15:43.190Z,354.38
2018-03-02T08:16:43.160Z,360.00
2018-03-02T08:17:43.126Z,365.63
2018-03-02T08:18:43.101Z,365.63
2018-03-02T08:19:43.066Z,365.63
2018-03-02T08:20:43.028Z,371.25
2018-03-02T08:21:42.997Z,376.88
2018-03-02T08:22:42.965Z,382.50
2018-03-02T08:23:42.932Z,382.50
2018-03-02T08:24:42.904Z,382.50
2018-03-02T08:25:42.869Z,388.13
2018-03-02T08:26:42.839Z,393.75
2018-03-02T08:27:42.815Z,393.75
2018-03-02T08:28:42.774Z,393.75
2018-03-02T08:29:42.749Z,399.38
2018-03-02T08:30:42.848Z,399.38
2018-03-02T08:31:42.675Z,399.38
2018-03-02T08:32:42.642Z,399.38
2018-03-02T08:33:42.613Z,393.75
2018-03-02T08:34:42.581Z,399.38
2018-03-02T08:35:42.553Z,393.75
2018-03-02T08:36:42.520Z,399.38
2018-03-02T08:37:42.490Z,393.75
2018-03-02T08:38:42.451Z,399.38
2018-03-02T08:39:42.422Z,399.38
2018-03-02T08:40:42.386Z,410.63
2018-03-02T08:41:42.353Z,416.25
2018-03-02T08:42:42.325Z,416.25
2018-03-02T08:43:42.291Z,416.25
2018-03-02T08:44:42.270Z,421.88
2018-03-02T08:45:42.230Z,433.13
2018-03-02T08:46:42.196Z,438.75
2018-03-02T08:47:42.169Z,438.75
2018-03-02T08:48:42.129Z,450.00
2018-03-02T08:49:42.099Z,450.00
2018-03-02T08:50:42.070Z,461.25
2018-03-02T08:51:42.032Z,472.50
2018-03-02T08:52:42.096Z,675.00
2018-03-02T08:53:41.977Z,978.75
2018-03-02T08:54:41.949Z,1310.63
2018-03-02T08:55:41.912Z,1434.38
2018-03-02T08:56:41.878Z,1468.13
2018-03-02T08:57:41.842Z,1265.63
2018-03-02T08:58:41.894Z,1428.75
2018-03-02T08:59:41.783Z,1445.63
2018-03-02T09:00:41.752Z,1485.00
2018-03-02T09:01:41.719Z,1760.63
2018-03-02T09:02:41.698Z,1687.50
2018-03-02T09:03:41.660Z,1366.88
2018-03-02T09:04:41.623Z,1485.00
2018-03-02T09:05:41.599Z,1794.38
2018-03-02T09:06:41.568Z,1833.75
2018-03-02T09:07:41.539Z,1271.25
2018-03-02T09:08:41.515Z,1293.75
2018-03-02T09:09:41.480Z,1271.25
2018-03-02T09:10:41.455Z,1153.13
2018-03-02T09:11:41.424Z,1372.50
2018-03-02T09:12:41.397Z,1383.75
2018-03-02T09:13:41.374Z,1501.88
2018-03-02T09:14:41.475Z,1485.00
2018-03-02T09:15:41.310Z,1591.88
2018-03-02T09:16:41.290Z,1620.00
2018-03-02T09:17:41.258Z,1586.25
2018-03-02T09:18:41.238Z,1788.75
2018-03-02T09:19:41.203Z,1704.38
2018-03-02T09:20:41.176Z,1665.00
2018-03-02T09:21:41.148Z,1721.25
2018-03-02T09:22:41.125Z,1771.88
2018-03-02T09:23:41.102Z,1333.13
2018-03-02T09:24:41.070Z,1344.38
2018-03-02T09:25:41.093Z,1310.63
2018-03-02T09:26:41.017Z,1580.63
2018-03-02T09:27:41.004Z,1417.50
2018-03-02T09:28:41.104Z,1569.38
2018-03-02T09:29:40.948Z,1496.25
2018-03-02T09:30:40.914Z,1344.38
2018-03-02T09:31:40.887Z,1569.38
2018-03-02T09:32:40.872Z,1226.25
2018-03-02T09:33:40.836Z,1265.63
2018-03-02T09:34:40.822Z,1080.00
2018-03-02T09:35:40.804Z,1271.25
2018-03-02T09:36:40.763Z,1305.00
2018-03-02T09:37:40.737Z,1344.38
2018-03-02T09:38:40.719Z,1271.25
2018-03-02T09:39:40.685Z,1372.50
2018-03-02T09:40:40.665Z,1355.63
2018-03-02T09:41:40.673Z,1136.25
2018-03-02T09:42:40.617Z,1220.63
2018-03-02T09:43:40.604Z,1383.75
2018-03-02T09:44:40.559Z,1552.50
2018-03-02T09:45:40.538Z,1260.00
2018-03-02T09:46:40.513Z,1648.13
2018-03-02T09:47:40.484Z,1563.75
2018-03-02T09:48:40.454Z,1738.13
2018-03-02T09:49:40.434Z,1788.75
2018-03-02T09:50:40.403Z,1552.50
2018-03-02T09:51:40.373Z,1951.88
2018-03-02T09:52:40.361Z,2115.00
2018-03-02T09:53:40.329Z,2098.13
2018-03-02T09:54:40.324Z,1951.88
2018-03-02T09:55:40.276Z,1940.63
2018-03-02T09:56:40.255Z,2098.13
2018-03-02T09:57:40.225Z,2025.00
2018-03-02T09:58:40.215Z,2041.88
2018-03-02T09:59:40.189Z,2165.63
2018-03-02T10:00:40.156Z,2238.75
2018-03-02T10:01:40.126Z,2143.13
2018-03-02T10:02:40.103Z,2008.13
2018-03-02T10:03:40.175Z,1935.00
2018-03-02T10:04:40.070Z,1890.00
2018-03-02T10:05:40.033Z,1940.63
2018-03-02T10:06:40.008Z,1608.75
2018-03-02T10:07:39.982Z,1884.38
2018-03-02T10:08:39.965Z,1552.50
2018-03-02T10:09:39.934Z,1867.50
2018-03-02T10:10:39.912Z,1513.13
2018-03-02T10:11:39.887Z,1530.00
2018-03-02T10:12:39.862Z,1546.88
2018-03-02T10:13:39.839Z,2025.00
2018-03-02T10:14:39.828Z,1625.63
2018-03-02T10:15:39.790Z,1878.75
2018-03-02T10:16:39.775Z,2053.13
2018-03-02T10:17:39.753Z,2120.63
2018-03-02T10:18:39.725Z,1738.13
2018-03-02T10:19:39.696Z,1957.50
2018-03-02T10:20:39.671Z,2058.75
2018-03-02T10:21:39.656Z,2002.50
2018-03-02T10:22:39.625Z,2030.63
2018-03-02T10:23:39.744Z,2148.75
2018-03-02T10:24:39.576Z,2278.13
2018-03-02T10:25:39.553Z,2233.13
2018-03-02T10:26:39.530Z,2103.75
2018-03-02T10:27:39.508Z,1991.25
2018-03-02T10:28:39.482Z,2120.63
2018-03-02T10:29:39.462Z,2109.38
2018-03-02T10:30:39.437Z,2176.88
2018-03-02T10:31:39.409Z,2165.63
2018-03-02T10:32:39.393Z,2053.13
2018-03-02T10:33:39.373Z,2013.75
2018-03-02T10:34:39.342Z,1980.00
2018-03-02T10:35:39.352Z,2036.25
2018-03-02T10:36:39.296Z,2120.63
2018-03-02T10:37:39.272Z,2221.88
2018-03-02T10:38:39.301Z,2283.75
2018-03-02T10:39:39.226Z,2328.75
2018-03-02T10:40:39.208Z,2289.38
2018-03-02T10:41:39.179Z,2250.00
2018-03-02T10:42:39.165Z,2058.75
2018-03-02T10:43:39.145Z,2025.00
2018-03-02T10:44:39.107Z,2109.38
2018-03-02T10:45:39.085Z,1861.88
2018-03-02T10:46:39.058Z,1873.13
2018-03-02T10:47:39.039Z,1833.75
2018-03-02T10:48:39.013Z,1822.50
2018-03-02T10:49:38.995Z,1890.00
2018-03-02T10:50:39.033Z,1895.63
2018-03-02T10:51:38.943Z,1884.38
2018-03-02T10:52:38.919Z,1788.75
2018-03-02T10:53:38.902Z,1901.25
2018-03-02T10:54:38.868Z,1912.50
2018-03-02T10:55:38.851Z,2013.75
2018-03-02T10:56:38.837Z,1951.88
2018-03-02T10:57:38.821Z,1845.00
2018-03-02T10:58:38.836Z,1856.25
2018-03-02T10:59:38.751Z,1794.38
2018-03-02T11:00:38.736Z,1693.13
2018-03-02T11:01:38.708Z,1738.13
2018-03-02T11:02:38.683Z,1833.75
2018-03-02T11:03:38.656Z,2019.38
2018-03-02T11:04:38.633Z,1985.63
2018-03-02T11:05:38.612Z,1963.13
2018-03-02T11:06:38.585Z,1822.50
2018-03-02T11:07:38.562Z,1850.63
2018-03-02T11:08:38.589Z,1946.25
2018-03-02T11:09:38.516Z,1783.13
2018-03-02T11:10:38.491Z,1766.25
2018-03-02T11:11:38.622Z,1783.13
2018-03-02T11:12:38.448Z,1822.50
2018-03-02T11:13:38.421Z,1845.00
2018-03-02T11:14:38.395Z,2025.00
2018-03-02T11:15:38.375Z,1946.25
2018-03-02T11:16:38.359Z,1929.38
2018-03-02T11:17:38.326Z,1828.13
2018-03-02T11:18:38.311Z,1856.25
2018-03-02T11:19:38.280Z,1805.63
2018-03-02T11:20:38.252Z,1591.88
2018-03-02T11:21:38.231Z,1642.50
2018-03-02T11:22:38.210Z,1659.38
2018-03-02T11:23:38.182Z,1636.88
2018-03-02T11:24:38.167Z,1614.38
2018-03-02T11:25:38.138Z,1653.75
2018-03-02T11:26:38.115Z,1614.38
2018-03-02T11:27:38.117Z,1743.75
2018-03-02T11:28:38.077Z,1783.13
2018-03-02T11:29:38.038Z,1906.88
2018-03-02T11:30:38.082Z,1918.13
2018-03-02T11:31:38.000Z,1749.38
2018-03-02T11:32:37.977Z,1850.63
2018-03-02T11:33:37.954Z,1946.25
2018-03-02T11:34:37.920Z,1861.88
2018-03-02T11:35:37.928Z,1895.63
2018-03-02T11:36:37.874Z,1940.63
2018-03-02T11:37:37.850Z,1957.50
2018-03-02T11:38:37.831Z,1968.75
2018-03-02T11:39:37.807Z,1951.88
2018-03-02T11:40:37.792Z,2008.13
2018-03-02T11:41:37.753Z,2064.38
2018-03-02T11:42:37.731Z,1951.88
2018-03-02T11:43:37.729Z,1698.75
2018-03-02T11:44:37.682Z,1850.63
2018-03-02T11:45:37.669Z,1963.13
2018-03-02T11:46:37.638Z,1951.88
2018-03-02T11:47:37.609Z,1957.50
2018-03-02T11:48:37.593Z,1895.63
2018-03-02T11:49:37.567Z,1850.63
2018-03-02T11:50:37.551Z,1805.63
2018-03-02T11:51:37.517Z,1698.75
2018-03-02T11:52:37.515Z,1558.13
2018-03-02T11:53:37.484Z,1603.13
2018-03-02T11:54:37.450Z,1693.13
2018-03-02T11:55:37.421Z,1721.25
2018-03-02T11:56:37.406Z,1788.75
2018-03-02T11:57:37.380Z,1811.25
2018-03-02T11:58:37.349Z,1845.00
2018-03-02T11:59:37.327Z,1856.25
2018-03-02T12:00:37.298Z,1805.63
2018-03-02T12:01:37.276Z,1755.00
2018-03-02T12:02:37.258Z,1794.38
2018-03-02T12:03:37.228Z,1648.13
2018-03-02T12:04:37.199Z,1710.00
2018-03-02T12:05:37.185Z,1271.25
2018-03-02T12:06:37.151Z,624.38
2018-03-02T12:07:37.132Z,551.25
2018-03-02T12:08:37.106Z,528.75
2018-03-02T12:09:37.119Z,517.50
2018-03-02T12:10:37.092Z,500.63
2018-03-02T12:11:37.054Z,483.75
2018-03-02T12:12:37.004Z,483.75
2018-03-02T12:13:36.973Z,478.13
2018-03-02T12:14:36.949Z,472.50
2018-03-02T12:15:36.925Z,466.88
2018-03-02T12:16:36.908Z,455.63
2018-03-02T12:17:36.887Z,455.63
2018-03-02T12:18:36.850Z,450.00
2018-03-02T12:19:36.823Z,444.38
2018-03-02T12:20:36.794Z,438.75
2018-03-02T12:21:36.782Z,438.75
2018-03-02T12:22:36.791Z,433.13
2018-03-02T12:23:36.720Z,433.13
2018-03-02T12:24:36.692Z,427.50
2018-03-02T12:25:36.675Z,421.88
2018-03-02T12:26:36.641Z,421.88
2018-03-02T12:27:36.612Z,421.88
2018-03-02T12:28:36.588Z,416.25
2018-03-02T12:29:36.563Z,421.88
2018-03-02T12:30:36.536Z,416.25
2018-03-02T12:31:36.513Z,405.00
2018-03-02T12:32:36.484Z,399.38
2018-03-02T12:33:36.509Z,399.38
2018-03-02T12:34:36.445Z,393.75
2018-03-02T12:35:36.416Z,371.25
2018-03-02T12:36:36.461Z,365.63
2018-03-02T12:37:36.357Z,365.63
2018-03-02T12:38:36.321Z,360.00
2018-03-02T12:39:36.308Z,360.00
2018-03-02T12:40:36.279Z,365.63
2018-03-02T12:41:36.242Z,360.00
2018-03-02T12:42:36.323Z,348.75
2018-03-02T12:43:36.183Z,343.13
2018-03-02T12:44:36.194Z,331.88
2018-03-02T12:45:36.131Z,326.25
2018-03-02T12:46:36.103Z,309.38